createdAt,value
2018-05-26T00:00:30.976Z,62.12
2018-05-26T00:01:02.578Z,62.06
2018-05-26T00:01:34.164Z,62.14
2018-05-26T00:02:05.759Z,62.22
2018-05-26T00:02:37.346Z,62.26
2018-05-26T00:03:08.957Z,62.10
2018-05-26T00:03:40.543Z,62.17
2018-05-26T00:04:12.140Z,62.15
2018-05-26T00:04:43.751Z,62.18
2018-05-26T00:05:15.378Z,62.11
2018-05-26T00:05:46.956Z,62.10
2018-05-26T00:06:18.569Z,62.11
2018-05-26T00:06:50.170Z,62.15
2018-05-26T00:07:21.758Z,62.15
2018-05-26T00:07:53.361Z,62.07
2018-05-26T00:08:24.949Z,62.19
2018-05-26T00:08:56.534Z,62.26
2018-05-26T00:09:28.100Z,62.30
2018-05-26T00:09:59.668Z,62.12
2018-05-26T00:10:31.250Z,62.13
2018-05-26T00:11:02.909Z,62.15
2018-05-26T00:11:34.518Z,62.19
2018-05-26T00:12:06.097Z,62.23
2018-05-26T00:12:37.695Z,62.13
2018-05-26T00:13:09.306Z,62.27
2018-05-26T00:13:40.919Z,62.17
2018-05-26T00:14:12.517Z,62.15
2018-05-26T00:14:44.116Z,62.22
2018-05-26T00:15:15.707Z,62.22
2018-05-26T00:15:47.318Z,62.21
2018-05-26T00:16:18.966Z,62.40
2018-05-26T00:16:50.549Z,62.23
2018-05-26T00:17:22.162Z,62.29
2018-05-26T00:17:53.754Z,62.33
2018-05-26T00:18:25.355Z,62.26
2018-05-26T00:18:57.010Z,62.31
2018-05-26T00:19:28.604Z,62.27
2018-05-26T00:20:00.218Z,62.28
2018-05-26T00:20:31.830Z,62.26
2018-05-26T00:21:03.412Z,62.29
2018-05-26T00:21:34.980Z,62.31
2018-05-26T00:22:06.568Z,62.38
2018-05-26T00:22:38.165Z,62.19
2018-05-26T00:23:09.814Z,62.19
2018-05-26T00:23:41.438Z,62.27
2018-05-26T00:24:13.041Z,62.20
2018-05-26T00:24:44.653Z,62.36
2018-05-26T00:25:16.247Z,62.17
2018-05-26T00:25:47.848Z,62.31
2018-05-26T00:26:19.420Z,62.54
2018-05-26T00:26:50.987Z,62.77
2018-05-26T00:27:22.579Z,62.93
2018-05-26T00:27:54.226Z,62.73
2018-05-26T00:28:25.832Z,62.48
2018-05-26T00:28:57.418Z,62.76
2018-05-26T00:29:29.026Z,62.74
2018-05-26T00:30:00.614Z,62.52
2018-05-26T00:30:32.193Z,62.91
2018-05-26T00:31:03.775Z,62.82
2018-05-26T00:31:35.348Z,62.67
2018-05-26T00:32:06.954Z,62.82
2018-05-26T00:32:38.566Z,62.81
2018-05-26T00:33:10.193Z,62.63
2018-05-26T00:33:41.781Z,62.63
2018-05-26T00:34:13.366Z,62.68
2018-05-26T00:34:44.955Z,62.80
2018-05-26T00:35:16.552Z,62.73
2018-05-26T00:35:48.139Z,62.80
2018-05-26T00:36:19.761Z,62.66
2018-05-26T00:36:51.365Z,62.59
2018-05-26T00:37:22.954Z,62.81
2018-05-26T00:37:54.554Z,62.81
2018-05-26T00:38:26.165Z,62.85
2018-05-26T00:38:57.765Z,62.55
2018-05-26T00:39:29.350Z,62.62
2018-05-26T00:40:00.934Z,62.78
2018-05-26T00:40:32.518Z,62.78
2018-05-26T00:41:04.102Z,62.64
2018-05-26T00:41:35.745Z,62.98
2018-05-26T00:42:07.344Z,62.91
2018-05-26T00:42:38.920Z,62.83
2018-05-26T00:43:10.500Z,62.77
2018-05-26T00:43:42.106Z,62.79
2018-05-26T00:44:13.736Z,62.87
2018-05-26T00:44:45.348Z,63.07
2018-05-26T00:45:17.030Z,62.76
2018-05-26T00:45:48.633Z,62.83
2018-05-26T00:46:20.229Z,62.81
2018-05-26T00:46:51.894Z,63.17
2018-05-26T00:47:23.465Z,63.01
2018-05-26T00:47:55.056Z,62.89
2018-05-26T00:48:26.641Z,62.81
2018-05-26T00:48:58.278Z,62.85
2018-05-26T00:49:29.920Z,63.04
2018-05-26T00:50:01.526Z,62.90
2018-05-26T00:50:33.113Z,63.08
2018-05-26T00:51:04.697Z,63.02
2018-05-26T00:51:36.306Z,63.01
2018-05-26T00:52:07.913Z,63.08
2018-05-26T00:52:39.492Z,63.02
2018-05-26T00:53:11.098Z,63.13
2018-05-26T00:53:42.754Z,63.25
2018-05-26T00:54:14.331Z,63.46
2018-05-26T00:54:45.908Z,63.50
2018-05-26T00:55:17.565Z,63.45
2018-05-26T00:55:49.174Z,63.47
2018-05-26T00:56:20.762Z,63.35
2018-05-26T00:56:52.338Z,63.70
2018-05-26T00:57:23.918Z,63.71
2018-05-26T00:57:55.509Z,63.53
2018-05-26T00:58:27.118Z,63.86
2018-05-26T00:58:58.692Z,63.65
2018-05-26T00:59:30.288Z,63.78
2018-05-26T01:00:01.871Z,63.78
2018-05-26T01:00:34.292Z,63.80
2018-05-26T01:01:05.877Z,63.78
2018-05-26T01:01:37.789Z,63.57
2018-05-26T01:02:09.368Z,63.80
2018-05-26T01:02:40.960Z,63.67
2018-05-26T01:03:12.533Z,63.83
2018-05-26T01:03:44.142Z,64.04
2018-05-26T01:04:15.762Z,64.17
2018-05-26T01:04:47.351Z,63.93
2018-05-26T01:05:18.954Z,63.91
2018-05-26T01:05:50.604Z,63.92
2018-05-26T01:06:22.214Z,64.28
2018-05-26T01:06:53.792Z,64.10
2018-05-26T01:07:25.394Z,64.46
2018-05-26T01:07:57.002Z,64.76
2018-05-26T01:08:28.594Z,64.83
2018-05-26T01:09:00.178Z,64.50
2018-05-26T01:09:31.785Z,64.92
2018-05-26T01:10:03.398Z,64.54
2018-05-26T01:10:35.011Z,64.33
2018-05-26T01:11:06.638Z,64.59
2018-05-26T01:11:38.232Z,64.91
2018-05-26T01:12:09.818Z,64.36
2018-05-26T01:12:41.392Z,64.24
2018-05-26T01:13:12.985Z,64.27
2018-05-26T01:13:44.660Z,64.33
2018-05-26T01:14:16.242Z,64.96
2018-05-26T01:14:47.845Z,64.69
2018-05-26T01:15:19.441Z,64.68
2018-05-26T01:15:51.052Z,64.86
2018-05-26T01:16:22.664Z,64.83
2018-05-26T01:16:54.232Z,64.63
2018-05-26T01:17:25.842Z,64.79
2018-05-26T01:17:57.441Z,64.69
2018-05-26T01:18:29.026Z,64.79
2018-05-26T01:19:00.606Z,64.71
2018-05-26T01:19:32.209Z,64.87
2018-05-26T01:20:03.794Z,64.95
2018-05-26T01:20:35.374Z,64.90
2018-05-26T01:21:07.018Z,65.02
2018-05-26T01:21:38.630Z,64.82
2018-05-26T01:22:10.236Z,64.78
2018-05-26T01:22:41.933Z,64.60
2018-05-26T01:23:13.532Z,64.87
2018-05-26T01:23:45.104Z,65.00
2018-05-26T01:24:16.706Z,64.61
2018-05-26T01:24:48.308Z,64.72
2018-05-26T01:25:19.949Z,64.66
2018-05-26T01:25:51.553Z,64.68
2018-05-26T01:26:23.149Z,64.77
2018-05-26T01:26:54.720Z,64.59
2018-05-26T01:27:26.298Z,64.82
2018-05-26T01:27:57.902Z,64.83
2018-05-26T01:28:29.490Z,64.98
2018-05-26T01:29:01.094Z,64.92
2018-05-26T01:29:32.792Z,65.07
2018-05-26T01:30:04.413Z,64.88
2018-05-26T01:30:35.988Z,64.98
2018-05-26T01:31:07.597Z,64.75
2018-05-26T01:31:39.176Z,64.86
2018-05-26T01:32:10.767Z,64.97
2018-05-26T01:32:42.343Z,64.92
2018-05-26T01:33:13.913Z,64.61
2018-05-26T01:33:45.490Z,64.64
2018-05-26T01:34:17.120Z,64.80
2018-05-26T01:34:48.726Z,64.70
2018-05-26T01:35:20.348Z,64.70
2018-05-26T01:35:51.930Z,64.70
2018-05-26T01:36:23.500Z,64.74
2018-05-26T01:36:55.096Z,64.72
2018-05-26T01:37:26.685Z,64.79
2018-05-26T01:37:58.299Z,64.83
2018-05-26T01:38:29.882Z,64.61
2018-05-26T01:39:01.466Z,64.63
2018-05-26T01:39:33.032Z,64.74
2018-05-26T01:40:04.644Z,64.75
2018-05-26T01:40:36.245Z,64.90
2018-05-26T01:41:07.850Z,65.00
2018-05-26T01:41:39.461Z,64.83
2018-05-26T01:42:11.061Z,64.61
2018-05-26T01:42:42.649Z,64.63
2018-05-26T01:43:14.253Z,64.98
2018-05-26T01:43:45.827Z,64.74
2018-05-26T01:44:17.410Z,64.75
2018-05-26T01:44:49.018Z,64.80
2018-05-26T01:45:20.667Z,64.83
2018-05-26T01:45:52.264Z,64.94
2018-05-26T01:46:23.874Z,64.94
2018-05-26T01:46:55.483Z,64.70
2018-05-26T01:47:27.070Z,64.93
2018-05-26T01:47:58.640Z,65.02
2018-05-26T01:48:30.246Z,65.21
2018-05-26T01:49:01.841Z,65.02
2018-05-26T01:49:33.430Z,65.08
2018-05-26T01:50:05.035Z,65.07
2018-05-26T01:50:36.657Z,64.84
2018-05-26T01:51:08.236Z,64.92
2018-05-26T01:51:39.818Z,65.12
2018-05-26T01:52:11.388Z,65.27
2018-05-26T01:52:42.991Z,64.99
2018-05-26T01:53:14.574Z,65.18
2018-05-26T01:53:46.158Z,65.08
2018-05-26T01:54:17.761Z,65.32
2018-05-26T01:54:49.350Z,65.03
2018-05-26T01:55:20.930Z,65.15
2018-05-26T01:55:52.556Z,65.16
2018-05-26T01:56:24.139Z,65.09
2018-05-26T01:56:55.741Z,64.78
2018-05-26T01:57:27.316Z,64.79
2018-05-26T01:57:58.915Z,64.85
2018-05-26T01:58:30.522Z,64.75
2018-05-26T01:59:02.125Z,65.04
2018-05-26T01:59:33.725Z,65.09
2018-05-26T02:00:05.334Z,64.96
2018-05-26T02:00:36.966Z,65.00
2018-05-26T02:01:08.550Z,64.98
2018-05-26T02:01:40.159Z,64.82
2018-05-26T02:02:11.778Z,64.85
2018-05-26T02:02:43.389Z,64.84
2018-05-26T02:03:14.964Z,65.09
2018-05-26T02:03:46.536Z,64.74
2018-05-26T02:04:18.120Z,64.89
2018-05-26T02:04:49.746Z,64.50
2018-05-26T02:05:21.317Z,64.50
2018-05-26T02:05:52.920Z,64.71
2018-05-26T02:06:24.503Z,64.49
2018-05-26T02:06:56.085Z,65.04
2018-05-26T02:07:27.675Z,65.10
2018-05-26T02:07:59.286Z,64.53
2018-05-26T02:08:30.898Z,64.84
2018-05-26T02:09:02.532Z,64.87
2018-05-26T02:09:34.126Z,65.02
2018-05-26T02:10:05.697Z,65.00
2018-05-26T02:10:37.302Z,64.92
2018-05-26T02:11:08.914Z,64.59
2018-05-26T02:11:40.488Z,64.72
2018-05-26T02:12:12.073Z,64.63
2018-05-26T02:12:43.660Z,64.55
2018-05-26T02:13:15.247Z,64.76
2018-05-26T02:13:46.858Z,64.31
2018-05-26T02:14:18.486Z,64.87
2018-05-26T02:14:50.070Z,64.88
2018-05-26T02:15:21.669Z,64.59
2018-05-26T02:15:53.254Z,64.73
2018-05-26T02:16:24.838Z,64.65
2018-05-26T02:16:56.428Z,64.51
2018-05-26T02:17:28.038Z,64.87
2018-05-26T02:17:59.622Z,64.48
2018-05-26T02:18:31.230Z,64.50
2018-05-26T02:19:02.838Z,64.43
2018-05-26T02:19:34.463Z,64.50
2018-05-26T02:20:06.047Z,64.76
2018-05-26T02:20:37.617Z,64.74
2018-05-26T02:21:09.202Z,64.76
2018-05-26T02:21:40.796Z,64.39
2018-05-26T02:22:12.380Z,64.49
2018-05-26T02:22:43.966Z,64.38
2018-05-26T02:23:15.546Z,64.59
2018-05-26T02:23:47.139Z,64.52
2018-05-26T02:24:18.774Z,64.36
2018-05-26T02:24:50.402Z,64.45
2018-05-26T02:25:22.006Z,64.64
2018-05-26T02:25:53.594Z,64.88
2018-05-26T02:26:25.178Z,64.85
2018-05-26T02:26:56.748Z,65.25
2018-05-26T02:27:28.316Z,64.94
2018-05-26T02:27:59.898Z,65.21
2018-05-26T02:28:31.464Z,64.96
2018-05-26T02:29:03.046Z,64.94
2018-05-26T02:29:34.630Z,64.86
2018-05-26T02:30:06.214Z,65.11
2018-05-26T02:30:37.835Z,64.93
2018-05-26T02:31:09.415Z,65.10
2018-05-26T02:31:41.008Z,65.08
2018-05-26T02:32:12.605Z,64.70
2018-05-26T02:32:44.185Z,64.91
2018-05-26T02:33:15.752Z,64.89
2018-05-26T02:33:47.320Z,64.85
2018-05-26T02:34:18.907Z,64.86
2018-05-26T02:34:50.525Z,65.19
2018-05-26T02:35:22.101Z,65.03
2018-05-26T02:35:53.704Z,64.96
2018-05-26T02:36:25.291Z,64.80
2018-05-26T02:36:56.906Z,65.02
2018-05-26T02:37:28.491Z,64.77
2018-05-26T02:38:00.085Z,65.35
2018-05-26T02:38:31.673Z,65.03
2018-05-26T02:39:03.257Z,64.76
2018-05-26T02:39:34.862Z,64.98
2018-05-26T02:40:06.450Z,64.98
2018-05-26T02:40:38.069Z,64.94
2018-05-26T02:41:09.687Z,65.02
2018-05-26T02:41:41.352Z,64.93
2018-05-26T02:42:12.957Z,64.87
2018-05-26T02:42:44.542Z,64.80
2018-05-26T02:43:16.137Z,65.02
2018-05-26T02:43:47.722Z,65.04
2018-05-26T02:44:19.302Z,64.97
2018-05-26T02:44:50.891Z,65.10
2018-05-26T02:45:22.494Z,65.15
2018-05-26T02:45:54.110Z,65.26
2018-05-26T02:46:25.728Z,65.15
2018-05-26T02:46:57.300Z,65.20
2018-05-26T02:47:28.919Z,65.24
2018-05-26T02:48:00.519Z,65.28
2018-05-26T02:48:32.092Z,65.14
2018-05-26T02:49:03.694Z,64.91
2018-05-26T02:49:35.278Z,65.19
2018-05-26T02:50:06.882Z,65.39
2018-05-26T02:50:38.485Z,65.56
2018-05-26T02:51:10.122Z,65.34
2018-05-26T02:51:41.706Z,65.71
2018-05-26T02:52:13.310Z,65.34
2018-05-26T02:52:44.885Z,65.60
2018-05-26T02:53:16.476Z,65.82
2018-05-26T02:53:48.077Z,65.62
2018-05-26T02:54:19.672Z,65.42
2018-05-26T02:54:51.272Z,65.72
2018-05-26T02:55:22.857Z,65.94
2018-05-26T02:55:54.462Z,65.95
2018-05-26T02:56:26.096Z,65.74
2018-05-26T02:56:57.755Z,65.94
2018-05-26T02:57:29.390Z,66.09
2018-05-26T02:58:00.998Z,66.17
2018-05-26T02:58:32.606Z,65.81
2018-05-26T02:59:04.194Z,65.85
2018-05-26T02:59:35.791Z,66.13
2018-05-26T03:00:07.401Z,66.06
2018-05-26T03:00:38.996Z,66.33
2018-05-26T03:01:10.582Z,66.04
2018-05-26T03:01:42.161Z,66.32
2018-05-26T03:02:13.753Z,66.06
2018-05-26T03:02:45.363Z,66.25
2018-05-26T03:03:16.950Z,66.24
2018-05-26T03:03:48.052Z,66.56
2018-05-26T03:04:25.315Z,66.48
2018-05-26T03:05:02.562Z,66.23
2018-05-26T03:05:39.810Z,66.58
2018-05-26T03:06:17.058Z,66.23
2018-05-26T03:06:54.296Z,66.17
2018-05-26T03:07:31.612Z,67.01
2018-05-26T03:08:08.882Z,66.45
2018-05-26T03:08:46.154Z,67.07
2018-05-26T03:09:23.540Z,66.85
2018-05-26T03:10:00.954Z,66.91
2018-05-26T03:10:38.204Z,67.03
2018-05-26T03:11:15.442Z,66.91
2018-05-26T03:11:52.842Z,66.73
2018-05-26T03:12:30.228Z,66.84
2018-05-26T03:13:07.563Z,67.02
2018-05-26T03:13:44.814Z,67.17
2018-05-26T03:14:22.072Z,66.77
2018-05-26T03:14:53.221Z,66.69
2018-05-26T03:15:24.330Z,67.07
2018-05-26T03:16:01.606Z,67.07
2018-05-26T03:16:36.686Z,66.93
2018-05-26T03:17:09.268Z,67.14
2018-05-26T03:17:46.711Z,66.93
2018-05-26T03:18:18.371Z,66.72
2018-05-26T03:18:49.982Z,66.49
2018-05-26T03:19:21.590Z,66.67
2018-05-26T03:19:53.183Z,66.63
2018-05-26T03:20:24.828Z,66.74
2018-05-26T03:20:56.396Z,66.51
2018-05-26T03:21:27.997Z,66.58
2018-05-26T03:21:59.583Z,66.64
2018-05-26T03:22:31.186Z,66.53
2018-05-26T03:23:02.769Z,66.69
2018-05-26T03:23:34.416Z,66.56
2018-05-26T03:24:05.996Z,66.52
2018-05-26T03:24:37.588Z,66.52
2018-05-26T03:25:09.169Z,66.33
2018-05-26T03:25:40.773Z,66.62
2018-05-26T03:26:12.349Z,66.55
2018-05-26T03:26:43.928Z,66.39
2018-05-26T03:27:15.530Z,66.66
2018-05-26T03:27:47.104Z,66.50
2018-05-26T03:28:18.699Z,66.41
2018-05-26T03:28:50.361Z,66.46
2018-05-26T03:29:21.971Z,66.66
2018-05-26T03:29:53.575Z,66.61
2018-05-26T03:30:25.158Z,66.57
2018-05-26T03:30:56.752Z,66.69
2018-05-26T03:31:28.334Z,66.51
2018-05-26T03:31:59.960Z,66.60
2018-05-26T03:32:31.546Z,66.57
2018-05-26T03:33:03.153Z,66.22
2018-05-26T03:33:34.732Z,66.46
2018-05-26T03:34:06.338Z,66.52
2018-05-26T03:34:37.921Z,66.54
2018-05-26T03:35:09.530Z,66.67
2018-05-26T03:35:41.137Z,66.45
2018-05-26T03:36:12.721Z,66.45
2018-05-26T03:36:44.335Z,66.52
2018-05-26T03:37:15.921Z,66.75
2018-05-26T03:37:47.488Z,66.75
2018-05-26T03:38:19.090Z,66.66
2018-05-26T03:38:50.697Z,66.57
2018-05-26T03:39:22.325Z,66.36
2018-05-26T03:39:53.948Z,66.31
2018-05-26T03:40:25.559Z,66.42
2018-05-26T03:40:57.146Z,66.59
2018-05-26T03:41:28.750Z,66.49
2018-05-26T03:42:00.334Z,66.50
2018-05-26T03:42:31.918Z,66.43
2018-05-26T03:43:03.523Z,66.49
2018-05-26T03:43:35.120Z,66.49
2018-05-26T03:44:06.734Z,66.35
2018-05-26T03:44:38.326Z,66.42
2018-05-26T03:45:09.901Z,66.67
2018-05-26T03:45:41.486Z,66.53
2018-05-26T03:46:13.090Z,66.36
2018-05-26T03:46:44.678Z,66.46
2018-05-26T03:47:16.261Z,66.37
2018-05-26T03:47:47.828Z,66.49
2018-05-26T03:48:19.413Z,66.25
2018-05-26T03:48:50.984Z,66.27
2018-05-26T03:49:22.593Z,66.42
2018-05-26T03:49:54.164Z,66.80
2018-05-26T03:50:25.808Z,66.47
2018-05-26T03:50:57.413Z,66.31
2018-05-26T03:51:29.021Z,66.53
2018-05-26T03:52:00.611Z,66.33
2018-05-26T03:52:32.184Z,66.85
2018-05-26T03:53:03.786Z,67.08
2018-05-26T03:53:35.375Z,66.63
2018-05-26T03:54:06.982Z,66.79
2018-05-26T03:54:38.581Z,67.09
2018-05-26T03:55:10.171Z,66.83
2018-05-26T03:55:41.811Z,66.91
2018-05-26T03:56:13.398Z,66.82
2018-05-26T03:56:44.991Z,66.74
2018-05-26T03:57:16.608Z,66.60
2018-05-26T03:57:48.194Z,66.50
2018-05-26T03:58:19.764Z,66.42
2018-05-26T03:58:51.350Z,66.47
2018-05-26T03:59:22.930Z,66.62
2018-05-26T03:59:54.510Z,66.67
2018-05-26T04:00:26.158Z,66.55
2018-05-26T04:00:57.746Z,66.46
2018-05-26T04:01:29.326Z,66.62
2018-05-26T04:02:00.906Z,66.45
2018-05-26T04:02:32.494Z,66.55
2018-05-26T04:03:04.108Z,66.84
2018-05-26T04:03:35.684Z,66.35
2018-05-26T04:04:07.266Z,66.37
2018-05-26T04:04:38.870Z,66.38
2018-05-26T04:05:10.502Z,66.69
2018-05-26T04:05:42.085Z,66.67
2018-05-26T04:06:13.652Z,66.75
2018-05-26T04:06:45.282Z,66.50
2018-05-26T04:07:16.861Z,66.34
2018-05-26T04:07:48.470Z,66.57
2018-05-26T04:08:20.058Z,66.32
2018-05-26T04:08:51.642Z,66.47
2018-05-26T04:09:23.231Z,66.08
2018-05-26T04:09:54.828Z,65.56
2018-05-26T04:10:26.413Z,64.82
2018-05-26T04:10:58.024Z,64.34
2018-05-26T04:11:29.605Z,63.65
2018-05-26T04:12:01.190Z,63.25
2018-05-26T04:12:32.783Z,62.86
2018-05-26T04:13:04.464Z,62.54
2018-05-26T04:13:36.058Z,62.34
2018-05-26T04:14:07.646Z,62.02
2018-05-26T04:14:39.240Z,61.56
2018-05-26T04:15:10.854Z,61.34
2018-05-26T04:15:42.509Z,61.22
2018-05-26T04:16:14.121Z,60.90
2018-05-26T04:16:45.710Z,60.73
2018-05-26T04:17:17.304Z,60.53
2018-05-26T04:17:48.894Z,60.20
2018-05-26T04:18:20.476Z,60.05
2018-05-26T04:18:52.072Z,59.79
2018-05-26T04:19:23.690Z,59.57
2018-05-26T04:19:55.301Z,59.37
2018-05-26T04:20:26.909Z,58.98
2018-05-26T04:20:58.559Z,58.63
2018-05-26T04:21:30.169Z,58.41
2018-05-26T04:22:01.818Z,57.97
2018-05-26T04:22:33.405Z,57.92
2018-05-26T04:23:05.010Z,58.04
2018-05-26T04:23:36.622Z,57.85
2018-05-26T04:24:08.197Z,57.84
2018-05-26T04:24:39.790Z,58.00
2018-05-26T04:25:11.364Z,58.14
2018-05-26T04:25:42.970Z,57.99
2018-05-26T04:26:14.592Z,58.27
2018-05-26T04:26:46.167Z,58.54
2018-05-26T04:27:17.778Z,58.54
2018-05-26T04:27:49.362Z,58.58
2018-05-26T04:28:20.970Z,58.58
2018-05-26T04:28:52.556Z,58.64
2018-05-26T04:29:24.170Z,58.65
2018-05-26T04:29:55.766Z,58.53
2018-05-26T04:30:27.338Z,58.42
2018-05-26T04:30:58.924Z,58.43
2018-05-26T04:31:30.565Z,58.24
2018-05-26T04:32:02.170Z,57.98
2018-05-26T04:32:33.772Z,57.94
2018-05-26T04:33:05.358Z,57.83
2018-05-26T04:33:36.943Z,57.61
2018-05-26T04:34:08.526Z,57.39
2018-05-26T04:34:40.111Z,57.32
2018-05-26T04:35:11.722Z,57.11
2018-05-26T04:35:43.305Z,56.88
2018-05-26T04:36:14.886Z,56.76
2018-05-26T04:36:46.501Z,56.59
2018-05-26T04:37:18.150Z,56.39
2018-05-26T04:37:49.765Z,56.14
2018-05-26T04:38:21.384Z,56.19
2018-05-26T04:38:52.959Z,56.39
2018-05-26T04:39:24.566Z,56.49
2018-05-26T04:39:56.140Z,56.41
2018-05-26T04:40:27.732Z,56.37
2018-05-26T04:40:59.322Z,56.49
2018-05-26T04:41:30.919Z,56.61
2018-05-26T04:42:02.573Z,56.76
2018-05-26T04:42:34.172Z,56.94
2018-05-26T04:43:05.783Z,57.09
2018-05-26T04:43:37.374Z,57.06
2018-05-26T04:44:08.962Z,57.21
2018-05-26T04:44:40.546Z,57.29
2018-05-26T04:45:12.150Z,57.51
2018-05-26T04:45:43.757Z,57.62
2018-05-26T04:46:15.337Z,57.81
2018-05-26T04:46:46.946Z,58.06
2018-05-26T04:47:18.578Z,58.21
2018-05-26T04:47:50.171Z,58.16
2018-05-26T04:48:21.833Z,58.11
2018-05-26T04:48:53.430Z,58.49
2018-05-26T04:49:25.035Z,58.54
2018-05-26T04:49:56.629Z,58.81
2018-05-26T04:50:28.214Z,58.99
2018-05-26T04:50:59.793Z,59.32
2018-05-26T04:51:31.374Z,59.81
2018-05-26T04:52:02.981Z,60.38
2018-05-26T04:52:34.581Z,60.80
2018-05-26T04:53:06.156Z,61.00
2018-05-26T04:53:37.834Z,61.29
2018-05-26T04:54:09.426Z,61.55
2018-05-26T04:54:41.039Z,61.87
2018-05-26T04:55:12.654Z,62.06
2018-05-26T04:55:44.227Z,62.42
2018-05-26T04:56:15.838Z,62.72
2018-05-26T04:56:47.436Z,62.86
2018-05-26T04:57:19.050Z,63.36
2018-05-26T04:57:50.641Z,63.37
2018-05-26T04:58:22.222Z,63.61
2018-05-26T04:58:53.860Z,63.91
2018-05-26T04:59:25.475Z,64.03
2018-05-26T04:59:57.087Z,64.15
2018-05-26T05:00:28.664Z,64.38
2018-05-26T05:01:00.242Z,64.48
2018-05-26T05:01:31.826Z,64.62
2018-05-26T05:02:03.434Z,64.83
2018-05-26T05:02:35.026Z,64.82
2018-05-26T05:03:06.634Z,64.72
2018-05-26T05:03:38.217Z,64.88
2018-05-26T05:04:09.828Z,64.87
2018-05-26T05:04:41.474Z,65.08
2018-05-26T05:05:13.062Z,65.10
2018-05-26T05:05:44.682Z,65.13
2018-05-26T05:06:16.238Z,65.20
2018-05-26T05:06:47.842Z,65.29
2018-05-26T05:07:19.417Z,65.28
2018-05-26T05:07:50.989Z,65.56
2018-05-26T05:08:22.574Z,65.50
2018-05-26T05:08:54.181Z,65.53
2018-05-26T05:09:25.793Z,65.51
2018-05-26T05:09:57.398Z,65.57
2018-05-26T05:10:28.988Z,65.62
2018-05-26T05:11:00.594Z,65.66
2018-05-26T05:11:32.178Z,65.55
2018-05-26T05:12:03.782Z,65.60
2018-05-26T05:12:35.377Z,65.68
2018-05-26T05:13:06.991Z,65.75
2018-05-26T05:13:38.605Z,65.78
2018-05-26T05:14:10.190Z,65.72
2018-05-26T05:14:41.789Z,65.83
2018-05-26T05:15:13.374Z,65.90
2018-05-26T05:15:45.006Z,65.84
2018-05-26T05:16:16.610Z,65.91
2018-05-26T05:16:48.194Z,65.87
2018-05-26T05:17:19.797Z,65.91
2018-05-26T05:17:51.482Z,65.90
2018-05-26T05:18:23.071Z,66.04
2018-05-26T05:18:54.678Z,66.06
2018-05-26T05:19:26.266Z,65.96
2018-05-26T05:19:57.894Z,66.04
2018-05-26T05:20:29.497Z,66.08
2018-05-26T05:21:01.082Z,66.07
2018-05-26T05:21:32.686Z,66.16
2018-05-26T05:22:04.278Z,66.18
2018-05-26T05:22:35.881Z,66.03
2018-05-26T05:23:07.485Z,66.20
2018-05-26T05:23:39.066Z,66.06
2018-05-26T05:24:10.730Z,66.17
2018-05-26T05:24:42.365Z,66.11
2018-05-26T05:25:13.994Z,66.05
2018-05-26T05:25:45.569Z,66.15
2018-05-26T05:26:17.163Z,66.12
2018-05-26T05:26:48.799Z,66.02
2018-05-26T05:27:20.346Z,66.01
2018-05-26T05:27:51.930Z,66.06
2018-05-26T05:28:23.513Z,66.09
2018-05-26T05:28:55.084Z,66.10
2018-05-26T05:29:26.685Z,65.95
2018-05-26T05:29:58.293Z,66.06
2018-05-26T05:30:29.904Z,66.02
2018-05-26T05:31:01.473Z,66.07
2018-05-26T05:31:33.058Z,66.16
2018-05-26T05:32:04.636Z,66.06
2018-05-26T05:32:36.249Z,66.16
2018-05-26T05:33:07.855Z,66.28
2018-05-26T05:33:39.448Z,66.02
2018-05-26T05:34:11.052Z,66.10
2018-05-26T05:34:42.632Z,66.17
2018-05-26T05:35:14.266Z,66.30
2018-05-26T05:35:45.846Z,66.17
2018-05-26T05:36:17.454Z,66.38
2018-05-26T05:36:49.056Z,66.26
2018-05-26T05:37:20.651Z,66.39
2018-05-26T05:37:52.242Z,66.25
2018-05-26T05:38:23.853Z,66.53
2018-05-26T05:38:55.494Z,66.48
2018-05-26T05:39:27.102Z,66.46
2018-05-26T05:39:58.685Z,66.43
2018-05-26T05:40:30.269Z,66.41
2018-05-26T05:41:01.866Z,66.38
2018-05-26T05:41:33.455Z,66.38
2018-05-26T05:42:05.061Z,66.47
2018-05-26T05:42:36.634Z,66.42
2018-05-26T05:43:08.214Z,66.41
2018-05-26T05:43:39.817Z,66.33
2018-05-26T05:44:11.430Z,66.38
2018-05-26T05:44:43.029Z,66.48
2018-05-26T05:45:14.634Z,66.36
2018-05-26T05:45:46.218Z,66.37
2018-05-26T05:46:17.791Z,66.45
2018-05-26T05:46:49.393Z,66.45
2018-05-26T05:47:20.973Z,66.51
2018-05-26T05:47:52.554Z,66.37
2018-05-26T05:48:24.134Z,66.40
2018-05-26T05:48:55.752Z,66.32
2018-05-26T05:49:27.358Z,66.29
2018-05-26T05:49:58.965Z,66.33
2018-05-26T05:50:30.536Z,66.32
2018-05-26T05:51:02.122Z,66.33
2018-05-26T05:51:33.703Z,66.35
2018-05-26T05:52:05.269Z,66.25
2018-05-26T05:52:36.854Z,66.36
2018-05-26T05:53:08.442Z,66.19
2018-05-26T05:53:40.037Z,66.29
2018-05-26T05:54:11.646Z,66.26
2018-05-26T05:54:43.241Z,66.33
2018-05-26T05:55:14.853Z,66.32
2018-05-26T05:55:46.438Z,66.28
2018-05-26T05:56:18.081Z,66.32
2018-05-26T05:56:49.670Z,66.20
2018-05-26T05:57:21.277Z,66.24
2018-05-26T05:57:52.865Z,66.26
2018-05-26T05:58:24.434Z,66.27
2018-05-26T05:58:56.012Z,66.18
2018-05-26T05:59:27.644Z,66.30
2018-05-26T05:59:59.248Z,66.32
2018-05-26T06:00:30.849Z,66.25
2018-05-26T06:01:02.449Z,66.27
2018-05-26T06:01:40.154Z,66.19
2018-05-26T06:02:11.763Z,66.31
2018-05-26T06:02:43.369Z,66.29
2018-05-26T06:03:14.975Z,66.21
2018-05-26T06:03:46.561Z,66.20
2018-05-26T06:04:18.169Z,66.20
2018-05-26T06:04:49.850Z,66.10
2018-05-26T06:05:21.424Z,66.12
2018-05-26T06:05:53.030Z,66.14
2018-05-26T06:06:24.614Z,66.08
2018-05-26T06:06:56.198Z,66.19
2018-05-26T06:07:27.799Z,66.13
2018-05-26T06:07:59.409Z,66.09
2018-05-26T06:08:31.004Z,66.13
2018-05-26T06:09:02.591Z,66.09
2018-05-26T06:09:34.198Z,66.21
2018-05-26T06:10:05.840Z,66.18
2018-05-26T06:10:37.412Z,66.09
2018-05-26T06:11:09.087Z,66.08
2018-05-26T06:11:40.698Z,66.11
2018-05-26T06:12:12.301Z,66.13
2018-05-26T06:12:43.911Z,66.11
2018-05-26T06:13:15.498Z,66.15
2018-05-26T06:13:47.089Z,66.14
2018-05-26T06:14:18.706Z,66.19
2018-05-26T06:14:50.306Z,66.13
2018-05-26T06:15:21.955Z,66.29
2018-05-26T06:15:53.549Z,66.06
2018-05-26T06:16:25.166Z,66.12
2018-05-26T06:16:56.774Z,66.09
2018-05-26T06:17:28.377Z,66.12
2018-05-26T06:17:59.971Z,66.01
2018-05-26T06:18:31.585Z,66.01
2018-05-26T06:19:03.174Z,66.03
2018-05-26T06:19:34.792Z,65.95
2018-05-26T06:20:06.398Z,66.05
2018-05-26T06:20:37.980Z,65.95
2018-05-26T06:21:09.580Z,66.00
2018-05-26T06:21:41.164Z,65.93
2018-05-26T06:22:12.772Z,65.93
2018-05-26T06:22:44.428Z,65.88
2018-05-26T06:23:16.006Z,65.88
2018-05-26T06:23:47.611Z,65.88
2018-05-26T06:24:19.193Z,65.90
2018-05-26T06:24:50.842Z,65.82
2018-05-26T06:25:22.440Z,65.77
2018-05-26T06:25:54.076Z,65.79
2018-05-26T06:26:25.717Z,65.69
2018-05-26T06:26:57.267Z,65.55
2018-05-26T06:27:28.869Z,65.52
2018-05-26T06:28:00.464Z,65.46
2018-05-26T06:28:32.046Z,65.56
2018-05-26T06:29:03.649Z,65.45
2018-05-26T06:29:35.266Z,65.38
2018-05-26T06:30:06.900Z,65.32
2018-05-26T06:30:38.486Z,65.27
2018-05-26T06:31:10.080Z,65.38
2018-05-26T06:31:41.668Z,65.26
2018-05-26T06:32:13.274Z,65.26
2018-05-26T06:32:44.872Z,65.17
2018-05-26T06:33:16.478Z,65.17
2018-05-26T06:33:48.061Z,65.13
2018-05-26T06:34:19.675Z,65.06
2018-05-26T06:34:51.274Z,65.00
2018-05-26T06:35:22.887Z,65.00
2018-05-26T06:35:54.512Z,64.91
2018-05-26T06:36:26.126Z,64.99
2018-05-26T06:36:57.717Z,64.91
2018-05-26T06:37:29.308Z,64.94
2018-05-26T06:38:00.963Z,64.97
2018-05-26T06:38:32.560Z,65.00
2018-05-26T06:39:04.132Z,64.98
2018-05-26T06:39:35.726Z,65.02
2018-05-26T06:40:07.302Z,65.00
2018-05-26T06:40:38.910Z,65.03
2018-05-26T06:41:10.501Z,65.14
2018-05-26T06:41:42.092Z,64.95
2018-05-26T06:42:13.702Z,65.25
2018-05-26T06:42:45.309Z,64.84
2018-05-26T06:43:16.890Z,64.67
2018-05-26T06:43:48.498Z,64.65
2018-05-26T06:44:20.105Z,64.61
2018-05-26T06:44:51.694Z,64.63
2018-05-26T06:45:23.330Z,64.46
2018-05-26T06:45:54.912Z,64.19
2018-05-26T06:46:26.498Z,63.69
2018-05-26T06:46:58.192Z,63.17
2018-05-26T06:47:29.814Z,62.05
2018-05-26T06:48:01.410Z,60.81
2018-05-26T06:48:33.022Z,60.19
2018-05-26T06:49:04.593Z,60.34